Time;durP1;ratioP1;P1;durP2;ratioP2;P2;SDS_P1;SDS_P2;PMS_P1;PMS_P2;Temp;Humidity;BMP_temperature;BMP_pressure;BME280_temperature;BME280_humidity;BME280_pressure;Samples;Min_cycle;Max_cycle;Signal;HPM_P1;HPM_P2
2021/07/07 00:00:49;;;;;;;6.55;2.30;;;;;;;23.72;50.12;98580.56;5129754;28;20415;-89
2021/07/07 00:03:15;;;;;;;6.13;2.97;;;;;;;23.70;49.98;98578.00;5131816;28;20057;-89
2021/07/07 00:05:42;;;;;;;7.53;2.60;;;;;;;23.54;49.79;98570.25;5131343;28;20035;-88
2021/07/07 00:08:08;;;;;;;8.45;2.85;;;;;;;23.52;50.11;98579.50;5129463;28;20043;-89
2021/07/07 00:10:34;;;;;;;6.13;2.88;;;;;;;23.34;50.61;98568.34;5131728;28;20043;-89
2021/07/07 00:13:02;;;;;;;6.60;2.90;;;;;;;23.28;50.59;98558.00;5131258;28;20492;-88
2021/07/07 00:15:31;;;;;;;5.50;2.70;;;;;;;23.11;51.00;98545.81;5126786;28;20498;-89
2021/07/07 00:17:57;;;;;;;4.55;3.03;;;;;;;22.96;51.65;98550.63;5133734;27;20031;-88
2021/07/07 00:20:23;;;;;;;5.18;2.72;;;;;;;23.02;51.93;98579.13;5135875;27;20058;-88
2021/07/07 00:22:50;;;;;;;5.93;3.00;;;;;;;23.00;51.87;98587.38;5136306;27;20035;-89
2021/07/07 00:25:16;;;;;;;4.53;2.95;;;;;;;22.82;52.66;98578.84;5135620;27;20062;-88
2021/07/07 00:27:42;;;;;;;5.10;2.80;;;;;;;22.72;52.32;98562.47;5136133;27;20806;-89
2021/07/07 00:30:09;;;;;;;6.43;2.60;;;;;;;22.67;52.48;98561.97;5131873;27;20054;-89
2021/07/07 00:32:35;;;;;;;5.18;2.70;;;;;;;22.49;53.10;98556.19;5135150;27;20051;-88
2021/07/07 00:35:01;;;;;;;6.30;2.90;;;;;;;22.44;53.71;98552.97;5135226;27;20080;-89
2021/07/07 00:37:27;;;;;;;7.55;3.00;;;;;;;22.56;53.49;98564.69;5135014;27;20532;-90
2021/07/07 00:39:54;;;;;;;7.68;2.90;;;;;;;22.47;53.81;98551.88;5134764;27;20043;-89
2021/07/07 00:42:20;;;;;;;6.25;2.90;;;;;;;22.51;53.79;98566.88;5133741;27;20035;-89
2021/07/07 00:44:45;;;;;;;6.57;3.40;;;;;;;22.52;53.61;98555.06;5134875;27;20503;-89
2021/07/07 00:47:11;;;;;;;6.50;2.70;;;;;;;22.43;53.84;98542.25;5132643;27;20504;-89
2021/07/07 00:49:37;;;;;;;6.30;3.20;;;;;;;22.44;53.94;98547.53;5135670;27;20031;-88
2021/07/07 00:52:03;;;;;;;6.40;2.97;;;;;;;22.55;53.98;98565.66;5135032;27;20031;-88
2021/07/07 00:54:31;;;;;;;6.53;2.90;;;;;;;22.48;54.27;98559.84;5135153;27;20047;-88
2021/07/07 00:57:00;;;;;;;4.57;2.90;;;;;;;22.30;54.92;98556.78;5135714;27;20039;-88
2021/07/07 00:59:28;;;;;;;8.48;3.42;;;;;;;22.24;55.07;98559.94;5133624;27;20384;-88
2021/07/07 01:01:55;;;;;;;6.83;3.20;;;;;;;22.05;56.06;98535.25;5133011;27;20429;-88
2021/07/07 01:04:20;;;;;;;7.75;3.10;;;;;;;22.11;56.20;98564.56;5134859;27;20275;-88
2021/07/07 01:06:46;;;;;;;5.03;3.08;;;;;;;22.08;56.02;98556.69;5135524;27;20035;-88
2021/07/07 01:09:12;;;;;;;6.65;3.50;;;;;;;22.17;55.49;98563.25;5135253;27;20027;-88
2021/07/07 01:11:38;;;;;;;6.68;2.97;;;;;;;22.11;55.68;98556.44;5133408;27;20035;-87
2021/07/07 01:14:06;;;;;;;5.30;3.08;;;;;;;22.23;55.93;98565.47;5134318;27;20076;-88
2021/07/07 01:16:31;;;;;;;5.80;3.40;;;;;;;22.24;55.27;98556.38;5131022;27;20043;-88
2021/07/07 01:18:57;;;;;;;5.28;3.40;;;;;;;22.25;55.60;98559.00;5134577;27;20054;-88
2021/07/07 01:21:24;;;;;;;5.60;3.78;;;;;;;22.32;56.05;98567.50;5130846;27;20122;-88
2021/07/07 01:23:51;;;;;;;4.35;3.10;;;;;;;22.20;55.70;98552.16;5133574;27;20511;-88
2021/07/07 01:26:17;;;;;;;6.38;3.53;;;;;;;22.13;56.36;98560.75;5134923;27;20114;-88
2021/07/07 01:28:43;;;;;;;7.50;3.50;;;;;;;22.03;56.94;98558.88;5134632;27;20456;-89
2021/07/07 01:31:09;;;;;;;5.38;3.55;;;;;;;22.11;56.49;98578.13;5131265;27;20047;-88
2021/07/07 01:33:35;;;;;;;5.38;3.35;;;;;;;22.07;56.96;98573.91;5132024;27;20047;-89
2021/07/07 01:36:01;;;;;;;6.43;3.60;;;;;;;22.00;56.89;98559.13;5133984;27;20035;-89
2021/07/07 01:38:27;;;;;;;6.35;3.33;;;;;;;22.07;57.03;98571.22;5131376;27;20580;-88
2021/07/07 01:40:57;;;;;;;4.38;3.35;;;;;;;21.98;57.14;98569.22;5133273;27;20122;-88
2021/07/07 01:43:22;;;;;;;7.68;3.40;;;;;;;22.05;57.22;98587.56;5132834;27;20082;-88
2021/07/07 01:45:48;;;;;;;6.30;3.40;;;;;;;21.99;57.47;98584.47;5130333;27;20099;-89
2021/07/07 01:48:14;;;;;;;9.25;3.63;;;;;;;21.96;57.89;98588.28;5133548;27;20126;-88
2021/07/07 01:50:40;;;;;;;8.32;3.30;;;;;;;21.97;57.54;98597.25;5133196;27;20036;-88
2021/07/07 01:53:06;;;;;;;6.00;3.10;;;;;;;21.99;57.87;98595.28;5133532;27;20711;-88
2021/07/07 01:55:32;;;;;;;8.05;3.70;;;;;;;21.70;58.29;98572.19;5131348;27;20408;-88
2021/07/07 01:57:59;;;;;;;6.25;3.20;;;;;;;21.79;58.17;98589.56;5132873;27;20039;-88
2021/07/07 02:00:27;;;;;;;5.88;3.13;;;;;;;21.60;58.87;98595.53;5130951;27;20042;-88
2021/07/07 02:02:54;;;;;;;4.77;3.47;;;;;;;21.52;58.83;98585.25;5133452;27;20032;-88
2021/07/07 02:05:25;;;;;;;6.03;3.22;;;;;;;21.48;58.70;98583.75;5133259;27;20088;-88
2021/07/07 02:07:52;;;;;;;5.93;3.60;;;;;;;21.57;58.60;98590.31;5133703;27;21443;-88
2021/07/07 02:10:18;;;;;;;6.03;3.33;;;;;;;21.60;58.36;98589.22;5134774;27;20365;-88
2021/07/07 02:12:45;;;;;;;6.90;4.30;;;;;;;21.45;58.82;98573.19;5134066;27;20042;-88
2021/07/07 02:15:16;;;;;;;5.82;3.53;;;;;;;21.51;59.24;98596.19;5131490;27;20035;-89
2021/07/07 02:17:44;;;;;;;7.57;3.70;;;;;;;21.46;59.06;98588.44;5133184;27;20437;-88
2021/07/07 02:20:12;;;;;;;5.15;3.42;;;;;;;21.43;59.30;98587.81;5134428;27;20088;-88
2021/07/07 02:22:38;;;;;;;5.60;3.25;;;;;;;21.41;59.65;98589.72;5134000;27;20066;-88
2021/07/07 02:25:05;;;;;;;6.97;3.40;;;;;;;21.35;59.59;98585.63;5131345;27;20184;-89
2021/07/07 02:27:31;;;;;;;10.00;3.53;;;;;;;21.36;59.80;98587.38;5134288;27;20047;-88
2021/07/07 02:29:57;;;;;;;7.32;3.33;;;;;;;21.31;59.41;98584.97;5132037;27;20061;-89
2021/07/07 02:32:24;;;;;;;6.82;3.55;;;;;;;21.24;59.46;98581.00;5133330;27;20512;-88
2021/07/07 02:34:50;;;;;;;9.35;3.90;;;;;;;21.04;60.02;98577.06;5131802;27;20031;-88
2021/07/07 02:37:16;;;;;;;5.47;3.65;;;;;;;20.93;60.24;98561.63;5134083;27;20035;-88
2021/07/07 02:39:41;;;;;;;6.28;3.55;;;;;;;20.96;60.40;98570.50;5133941;27;20039;-88
2021/07/07 02:42:07;;;;;;;6.18;3.33;;;;;;;20.98;60.97;98587.47;5133738;27;20043;-89
2021/07/07 02:44:33;;;;;;;6.88;4.03;;;;;;;20.86;60.74;98559.47;5132383;27;20039;-88
2021/07/07 02:46:59;;;;;;;7.85;3.88;;;;;;;20.91;60.89;98582.50;5130894;27;20122;-89
2021/07/07 02:49:26;;;;;;;5.35;3.15;;;;;;;20.88;60.98;98582.75;5133051;27;20046;-89
2021/07/07 02:51:52;;;;;;;5.55;3.55;;;;;;;20.82;60.96;98585.88;5133687;27;20042;-88
2021/07/07 02:54:17;;;;;;;6.53;3.40;;;;;;;20.66;61.54;98577.13;5134082;27;20396;-89
2021/07/07 02:56:44;;;;;;;10.65;3.55;;;;;;;20.54;61.91;98562.66;5133779;27;20035;-89
2021/07/07 02:59:10;;;;;;;10.35;4.07;;;;;;;20.69;61.62;98587.75;5132763;27;20437;-88
2021/07/07 03:01:36;;;;;;;5.72;4.22;;;;;;;20.46;62.70;98583.94;5131115;27;20036;-88
2021/07/07 03:04:01;;;;;;;7.60;3.90;;;;;;;20.47;62.92;98589.25;5133424;27;20559;-88
2021/07/07 03:06:29;;;;;;;6.57;4.18;;;;;;;20.46;63.19;98594.75;5133674;27;20400;-88
2021/07/07 03:08:55;;;;;;;7.30;4.03;;;;;;;20.42;63.13;98594.09;5133099;27;20046;-88
2021/07/07 03:11:20;;;;;;;6.95;4.13;;;;;;;20.44;63.25;98596.69;5132929;27;20039;-88
2021/07/07 03:13:46;;;;;;;7.30;4.30;;;;;;;20.34;63.37;98572.13;5133242;27;20031;-88
2021/07/07 03:16:12;;;;;;;7.13;4.13;;;;;;;20.17;63.70;98564.34;5131153;27;20065;-88
2021/07/07 03:18:40;;;;;;;6.53;4.80;;;;;;;20.33;63.92;98577.66;5132977;27;20083;-88
2021/07/07 03:21:06;;;;;;;6.20;4.38;;;;;;;20.30;63.81;98571.50;5133016;27;20399;-88
2021/07/07 03:23:33;;;;;;;9.00;4.97;;;;;;;20.39;64.26;98588.91;5133618;27;20035;-88
2021/07/07 03:25:59;;;;;;;9.65;4.43;;;;;;;20.31;63.62;98570.53;5133675;27;20126;-88
2021/07/07 03:28:25;;;;;;;11.50;4.68;;;;;;;20.44;64.07;98580.47;5133151;27;20232;-88
2021/07/07 03:30:51;;;;;;;8.35;4.82;;;;;;;20.43;64.02;98586.88;5130457;28;20136;-88
2021/07/07 03:33:17;;;;;;;9.32;4.97;;;;;;;20.40;64.32;98593.31;5130416;28;20035;-88
2021/07/07 03:35:43;;;;;;;10.63;5.13;;;;;;;20.37;64.63;98581.88;5133467;28;20511;-88
2021/07/07 03:38:09;;;;;;;10.65;5.50;;;;;;;20.45;64.83;98590.28;5131818;28;20039;-88
2021/07/07 03:40:38;;;;;;;10.20;4.72;;;;;;;20.36;64.76;98583.69;5132831;28;20070;-88
2021/07/07 03:43:03;;;;;;;10.93;4.70;;;;;;;20.39;64.73;98588.91;5131855;28;20056;-88
2021/07/07 03:45:29;;;;;;;8.60;5.15;;;;;;;20.39;64.43;98588.91;5129912;28;20031;-88
2021/07/07 03:47:56;;;;;;;9.27;6.35;;;;;;;20.34;64.70;98582.09;5132743;28;20035;-88
2021/07/07 03:50:23;;;;;;;11.25;5.63;;;;;;;20.40;64.97;98601.41;5132506;28;20066;-87
2021/07/07 03:52:49;;;;;;;9.52;5.32;;;;;;;20.46;64.50;98603.69;5134458;27;20050;-87
2021/07/07 03:55:17;;;;;;;9.13;4.97;;;;;;;20.40;65.06;98592.47;5137349;27;20035;-88
2021/07/07 03:57:45;;;;;;;6.72;4.70;;;;;;;20.47;64.99;98591.94;5137534;27;20043;-88
2021/07/07 04:26:51;;;;;;;9.23;4.43;;;;;;;20.74;65.67;98622.53;5075725;27;2045057;-89
2021/07/07 04:29:17;;;;;;;10.68;5.28;;;;;;;20.74;65.70;98618.00;5130961;28;20408;-91
2021/07/07 04:31:43;;;;;;;7.78;5.10;;;;;;;20.77;65.44;98622.31;5127365;27;20027;-89
2021/07/07 04:34:09;;;;;;;6.32;5.05;;;;;;;20.81;65.39;98626.53;5130171;28;20370;-89
2021/07/07 04:36:35;;;;;;;9.13;4.93;;;;;;;20.86;64.97;98621.66;5130665;27;20031;-89
2021/07/07 04:39:04;;;;;;;10.75;5.00;;;;;;;20.89;65.69;98629.56;5130527;27;20047;-88
2021/07/07 04:41:29;;;;;;;;;;;;;;;20.96;65.25;98632.69;5131292;28;20434;-88
2021/07/07 04:43:57;;;;;;;8.00;5.57;;;;;;;20.89;65.06;98608.78;5128641;28;19920;-89
2021/07/07 04:46:22;;;;;;;8.52;5.05;;;;;;;20.91;65.29;98605.97;5124626;27;20039;-88
2021/07/07 04:48:49;;;;;;;10.30;4.78;;;;;;;21.15;64.43;98616.00;5130113;27;20042;-88
2021/07/07 04:51:15;;;;;;;8.30;4.93;;;;;;;21.28;64.53;98622.22;5123225;28;20516;-88
2021/07/07 04:53:41;;;;;;;8.50;5.05;;;;;;;21.18;64.71;98594.97;5130421;27;20043;-88
2021/07/07 04:56:07;;;;;;;7.47;4.75;;;;;;;21.28;64.77;98604.16;5130539;27;20350;-89
2021/07/07 04:58:33;;;;;;;8.75;5.05;;;;;;;21.36;64.55;98605.41;5129266;28;20504;-89
2021/07/07 05:01:01;;;;;;;7.82;4.40;;;;;;;21.69;62.79;98613.78;5123658;27;20037;-89
2021/07/07 05:03:26;;;;;;;7.95;4.80;;;;;;;22.16;61.59;98627.34;5128545;28;20560;-90
2021/07/07 05:05:52;;;;;;;7.53;4.30;;;;;;;22.75;58.89;98621.00;5124647;27;20131;-88
2021/07/07 05:08:18;;;;;;;7.22;4.70;;;;;;;23.23;57.69;98617.22;5129869;28;20126;-89
2021/07/07 05:10:45;;;;;;;9.40;4.57;;;;;;;23.65;56.22;98620.94;5128122;28;20036;-89
2021/07/07 05:13:10;;;;;;;8.15;4.45;;;;;;;23.89;55.90;98607.19;5125512;28;20043;-89
2021/07/07 05:15:38;;;;;;;7.32;4.00;;;;;;;24.30;55.23;98615.50;5127243;27;20036;-89
2021/07/07 05:18:06;;;;;;;8.85;4.85;;;;;;;24.60;53.76;98614.75;5129669;27;20104;-89
2021/07/07 05:20:32;;;;;;;7.10;4.63;;;;;;;25.12;51.39;98622.88;5129705;28;20027;-88
2021/07/07 05:23:01;;;;;;;8.82;4.00;;;;;;;25.30;50.70;98609.47;5128727;27;20035;-90
2021/07/07 05:25:26;;;;;;;7.57;4.20;;;;;;;25.44;49.61;98619.09;5129982;27;20130;-89
2021/07/07 05:27:52;;;;;;;6.40;4.10;;;;;;;25.41;48.86;98601.19;5129283;28;20463;-89
2021/07/07 05:30:24;;;;;;;9.10;4.40;;;;;;;25.53;49.47;98621.03;5126597;27;20101;-89
2021/07/07 05:32:50;;;;;;;11.18;4.63;;;;;;;25.59;48.76;98606.81;5128715;28;20043;-89
2021/07/07 05:35:17;;;;;;;8.27;4.18;;;;;;;26.15;47.72;98629.84;5126181;28;20522;-89
2021/07/07 05:37:43;;;;;;;8.57;4.50;;;;;;;26.37;47.96;98624.09;5116953;28;20087;-88
2021/07/07 05:40:11;;;;;;;9.05;4.40;;;;;;;26.73;47.03;98627.06;5112910;28;20039;-89
2021/07/07 05:42:37;;;;;;;9.27;4.38;;;;;;;26.89;46.63;98634.66;5115480;28;20028;-89
2021/07/07 05:45:04;;;;;;;6.05;4.00;;;;;;;26.70;46.95;98637.44;5113413;28;20069;-89
2021/07/07 05:47:30;;;;;;;7.93;4.43;;;;;;;26.55;47.29;98620.63;5115538;28;20031;-89
2021/07/07 05:49:56;;;;;;;8.20;4.13;;;;;;;26.73;46.74;98635.25;5115462;28;20093;-89
2021/07/07 05:52:25;;;;;;;7.15;4.50;;;;;;;26.83;46.22;98638.81;5115183;28;20325;-88
2021/07/07 05:54:51;;;;;;;10.25;4.85;;;;;;;26.93;46.38;98636.03;5112091;28;20039;-89
2021/07/07 05:57:17;;;;;;;5.90;3.90;;;;;;;27.00;45.88;98647.22;5115762;28;20032;-88
2021/07/07 05:59:43;;;;;;;9.35;3.80;;;;;;;27.16;45.50;98650.19;5114799;28;20070;-89
2021/07/07 06:02:08;;;;;;;7.53;4.45;;;;;;;27.20;45.24;98653.50;5112656;28;20046;-89
2021/07/07 06:04:34;;;;;;;14.82;4.55;;;;;;;27.14;45.21;98652.19;5112344;28;20106;-89
2021/07/07 06:07:00;;;;;;;9.13;4.22;;;;;;;26.70;46.52;98651.91;5115033;28;20442;-89
2021/07/07 06:09:27;;;;;;;7.85;4.03;;;;;;;26.63;46.79;98648.03;5115144;28;20063;-88
2021/07/07 06:11:55;;;;;;;8.77;3.95;;;;;;;26.79;46.16;98637.38;5115298;28;20039;-90
2021/07/07 06:14:20;;;;;;;6.40;4.53;;;;;;;27.10;45.85;98655.38;5114084;28;20040;-90
2021/07/07 06:16:48;;;;;;;5.97;3.85;;;;;;;27.21;45.72;98647.88;5111767;28;20036;-89
2021/07/07 06:19:13;;;;;;;6.32;4.15;;;;;;;27.27;45.48;98653.78;5113306;28;20126;-89
2021/07/07 06:21:39;;;;;;;9.95;4.38;;;;;;;27.01;45.96;98641.63;5112044;28;20499;-89
2021/07/07 06:24:05;;;;;;;9.93;4.57;;;;;;;26.87;45.86;98642.13;5114830;28;20377;-88
2021/07/07 06:26:34;;;;;;;7.32;4.38;;;;;;;26.70;46.64;98664.72;5114487;28;20050;-90
2021/07/07 06:28:59;;;;;;;7.63;4.07;;;;;;;26.89;46.52;98663.78;5114098;28;20064;-90
2021/07/07 06:31:25;;;;;;;7.30;4.40;;;;;;;27.26;45.65;98680.22;5111735;28;20919;-90
2021/07/07 06:33:51;;;;;;;9.80;4.50;;;;;;;27.58;45.18;98679.75;5114259;28;20119;-89
2021/07/07 06:36:17;;;;;;;6.20;4.05;;;;;;;27.79;44.92;98671.31;5112970;28;20549;-89
2021/07/07 06:38:42;;;;;;;8.57;4.60;;;;;;;27.95;44.25;98676.13;5112693;28;20040;-90
2021/07/07 06:41:08;;;;;;;7.65;4.20;;;;;;;27.92;43.74;98645.53;5114576;28;20032;-89
2021/07/07 06:43:35;;;;;;;9.18;4.65;;;;;;;28.04;43.67;98667.00;5114329;28;20043;-89
2021/07/07 06:46:01;;;;;;;7.55;4.80;;;;;;;28.25;43.54;98653.00;5110582;28;20057;-89
2021/07/07 06:48:27;;;;;;;10.43;4.55;;;;;;;28.32;43.31;98650.50;5112963;28;20036;-90
2021/07/07 06:50:54;;;;;;;7.90;4.40;;;;;;;28.42;43.39;98654.00;5113778;28;20068;-90
2021/07/07 06:53:23;;;;;;;5.88;4.22;;;;;;;28.55;43.46;98663.72;5112294;28;20044;-90
2021/07/07 06:55:49;;;;;;;7.50;4.78;;;;;;;28.64;43.55;98660.88;5111037;28;20443;-90
2021/07/07 06:58:15;;;;;;;8.85;5.45;;;;;;;28.80;42.87;98667.50;5111455;28;20035;-90
2021/07/07 07:00:43;;;;;;;6.10;4.50;;;;;;;28.88;42.87;98665.66;5108991;28;20063;-91
2021/07/07 07:03:08;;;;;;;5.77;4.63;;;;;;;28.80;42.54;98665.63;5109279;28;20066;-91
2021/07/07 07:05:35;;;;;;;8.45;4.95;;;;;;;28.68;43.85;98665.03;5109955;28;20032;-90
2021/07/07 07:08:01;;;;;;;9.55;4.78;;;;;;;28.83;43.50;98668.03;5080771;28;20429;-91
2021/07/07 07:10:26;;;;;;;11.40;5.00;;;;;;;29.12;42.40;98674.25;5081104;28;20040;-91
2021/07/07 07:12:52;;;;;;;8.88;4.90;;;;;;;29.11;42.18;98654.22;5080021;28;20035;-90
2021/07/07 07:15:19;;;;;;;12.25;5.38;;;;;;;29.23;42.55;98663.88;5081064;28;20028;-90
2021/07/07 07:17:46;;;;;;;9.85;5.38;;;;;;;29.34;42.01;98649.03;5078160;28;20040;-90
2021/07/07 07:20:14;;;;;;;7.82;5.20;;;;;;;29.41;41.88;98643.78;5082974;28;20048;-90
2021/07/07 07:22:40;;;;;;;8.65;5.50;;;;;;;29.61;41.11;98655.31;5078682;28;20099;-89
2021/07/07 07:25:08;;;;;;;9.25;5.43;;;;;;;29.68;41.13;98656.34;5080820;28;20056;-89
2021/07/07 07:27:35;;;;;;;8.55;5.38;;;;;;;29.84;40.89;98659.19;5080498;28;20053;-90
2021/07/07 07:30:01;;;;;;;13.63;5.80;;;;;;;29.85;40.90;98646.34;5077436;28;20051;-90
2021/07/07 07:32:26;;;;;;;7.13;6.18;;;;;;;30.00;40.83;98655.63;5082042;28;20045;-91
2021/07/07 07:34:54;;;;;;;8.63;5.63;;;;;;;30.06;41.17;98676.03;5084948;28;20059;-90
2021/07/07 07:40:22;;;;;;;8.35;5.32;;;;;;;30.15;39.98;98663.19;5089902;27;20374;-91
2021/07/07 07:42:49;;;;;;;9.00;5.50;;;;;;;30.15;39.73;98671.44;5089186;28;20516;-90
2021/07/07 07:45:15;;;;;;;6.70;5.25;;;;;;;30.30;40.06;98661.53;5089533;28;20101;-90
2021/07/07 07:47:42;;;;;;;10.45;5.63;;;;;;;30.02;40.68;98672.75;5089576;28;20060;-89
2021/07/07 07:50:11;;;;;;;9.82;5.82;;;;;;;30.23;40.20;98668.66;5089749;28;20044;-89
2021/07/07 07:52:37;;;;;;;7.38;5.28;;;;;;;30.29;39.73;98666.13;5090294;28;20044;-91
2021/07/07 07:55:04;;;;;;;8.00;5.10;;;;;;;30.34;39.80;98659.28;5088971;28;20132;-91
2021/07/07 07:57:36;;;;;;;9.57;5.53;;;;;;;30.26;40.09;98663.72;5089855;28;20032;-90
2021/07/07 08:00:03;;;;;;;11.20;5.40;;;;;;;29.38;42.17;98672.31;5088589;28;20516;-90
2021/07/07 08:02:29;;;;;;;9.07;5.32;;;;;;;29.45;40.98;98667.03;5090025;28;20064;-90
2021/07/07 08:04:55;;;;;;;7.88;5.25;;;;;;;29.76;40.85;98672.88;5090386;28;20067;-91
2021/07/07 08:07:21;;;;;;;8.68;5.68;;;;;;;29.87;40.27;98674.44;5090376;28;20040;-89
2021/07/07 08:09:47;;;;;;;7.47;5.40;;;;;;;30.22;38.98;98667.81;5091212;28;20040;-92
2021/07/07 08:12:12;;;;;;;8.93;5.60;;;;;;;30.38;39.94;98674.38;5091009;28;20043;-91
2021/07/07 08:14:40;;;;;;;7.40;5.40;;;;;;;30.63;38.45;98678.84;5090229;28;20097;-92
2021/07/07 08:17:06;;;;;;;9.07;5.25;;;;;;;30.74;38.50;98665.81;5090198;28;20044;-91
2021/07/07 08:19:31;;;;;;;7.22;4.85;;;;;;;31.20;37.50;98686.16;5089927;28;20028;-91
2021/07/07 08:21:57;;;;;;;10.63;4.60;;;;;;;31.43;36.74;98679.97;5090429;28;20405;-91
2021/07/07 08:24:23;;;;;;;9.13;4.97;;;;;;;31.61;35.95;98693.47;5090264;28;20075;-91
2021/07/07 08:26:49;;;;;;;7.68;4.65;;;;;;;31.91;35.22;98689.03;5089463;28;20028;-90
2021/07/07 08:29:15;;;;;;;8.65;4.97;;;;;;;31.78;35.40;98669.50;5090417;28;20119;-91
2021/07/07 08:31:42;;;;;;;9.10;5.10;;;;;;;32.06;34.67;98684.50;5090050;28;20039;-90
2021/07/07 08:34:08;;;;;;;11.32;5.25;;;;;;;32.08;34.40;98692.59;5089360;28;20135;-91
2021/07/07 08:36:34;;;;;;;9.20;5.00;;;;;;;31.63;33.79;98692.25;5089329;28;20052;-91
2021/07/07 08:39:00;;;;;;;10.43;4.25;;;;;;;31.38;33.88;98691.47;5089273;28;20059;-90
2021/07/07 08:41:26;;;;;;;7.68;4.35;;;;;;;31.18;33.44;98681.88;5090759;28;20064;-91
2021/07/07 08:43:51;;;;;;;5.82;3.92;;;;;;;31.27;34.02;98689.94;5090671;28;20043;-91
2021/07/07 08:46:18;;;;;;;7.13;4.28;;;;;;;31.73;33.40;98689.31;5080224;28;20481;-91
2021/07/07 08:48:48;;;;;;;5.80;3.90;;;;;;;32.00;32.58;98682.47;5089250;28;20040;-91
2021/07/07 08:51:14;;;;;;;6.40;4.28;;;;;;;31.34;31.88;98673.63;5068867;28;20040;-92
2021/07/07 08:53:42;;;;;;;6.45;4.03;;;;;;;30.92;32.50;98671.97;5076678;28;20553;-92
2021/07/07 08:56:08;;;;;;;8.38;3.95;;;;;;;31.13;32.94;98676.06;5076112;28;20123;-90
2021/07/07 08:58:34;;;;;;;5.60;4.03;;;;;;;31.65;31.98;98687.44;5076193;28;20086;-90
2021/07/07 09:01:00;;;;;;;7.55;4.20;;;;;;;31.38;32.05;98676.84;5075267;28;20036;-90
2021/07/07 09:03:26;;;;;;;5.80;4.15;;;;;;;31.61;33.03;98669.56;5073077;28;20037;-91
2021/07/07 09:05:55;;;;;;;6.90;3.67;;;;;;;32.00;30.69;98676.97;5076101;28;20032;-91
2021/07/07 09:08:22;;;;;;;5.07;3.60;;;;;;;32.32;30.34;98670.41;5075070;28;20461;-91
2021/07/07 09:10:48;;;;;;;6.20;4.17;;;;;;;31.63;31.79;98661.16;5076087;28;20041;-92
2021/07/07 09:13:17;;;;;;;7.65;3.70;;;;;;;32.25;31.72;98679.56;5075659;28;20078;-94
2021/07/07 09:15:45;;;;;;;5.10;3.28;;;;;;;32.44;29.71;98665.31;5072972;28;20060;-89
2021/07/07 09:18:18;;;;;;;5.67;3.37;;;;;;;32.43;30.34;98671.88;5075089;28;20556;-90
2021/07/07 09:20:44;;;;;;;5.22;3.50;;;;;;;32.77;29.44;98659.56;5073571;28;20045;-91
2021/07/07 09:23:16;;;;;;;10.93;3.78;;;;;;;32.92;29.21;98659.56;5076266;28;20054;-90
2021/07/07 09:25:48;;;;;;;5.80;4.07;;;;;;;33.21;28.76;98667.06;5075308;28;20120;-89
2021/07/07 09:28:15;;;;;;;8.80;3.47;;;;;;;33.22;28.30;98660.50;5075975;28;20148;-90
2021/07/07 09:30:41;;;;;;;15.05;13.77;;;;;;;33.28;28.62;98650.63;5073933;28;20040;-92
2021/07/07 09:33:11;;;;;;;7.82;3.60;;;;;;;33.38;26.54;98653.06;5076770;28;20132;-92
2021/07/07 09:35:37;;;;;;;14.48;4.20;;;;;;;33.59;26.05;98647.66;5076143;28;20397;-90
2021/07/07 09:38:05;;;;;;;7.47;3.05;;;;;;;33.52;25.88;98657.72;5070322;28;20048;-92
2021/07/07 09:40:36;;;;;;;4.97;2.80;;;;;;;33.47;26.13;98652.78;5075084;28;20277;-91
2021/07/07 09:43:03;;;;;;;4.88;2.70;;;;;;;33.64;25.76;98641.59;5075220;28;20040;-91
2021/07/07 09:45:29;;;;;;;3.50;2.65;;;;;;;33.81;25.26;98639.44;5072685;28;20420;-89
2021/07/07 09:47:58;;;;;;;5.32;2.60;;;;;;;33.88;25.63;98637.66;5074570;28;20049;-90
2021/07/07 09:50:24;;;;;;;4.15;2.40;;;;;;;34.08;23.65;98648.91;5073761;28;20041;-91
2021/07/07 09:52:50;;;;;;;4.78;2.78;;;;;;;33.79;25.21;98625.00;5074021;28;20636;-90
2021/07/07 09:55:16;;;;;;;7.85;3.20;;;;;;;33.97;25.90;98647.50;5074832;28;20041;-91
2021/07/07 09:57:44;;;;;;;6.15;3.05;;;;;;;33.45;25.39;98638.34;5074664;28;20044;-92
2021/07/07 10:00:13;;;;;;;4.05;2.85;;;;;;;33.62;25.83;98630.75;5072587;28;20462;-93
2021/07/07 10:02:40;;;;;;;4.22;2.90;;;;;;;33.97;24.69;98644.75;5074701;28;20044;-92
2021/07/07 10:05:09;;;;;;;4.60;2.90;;;;;;;34.13;23.61;98641.75;5074257;28;20115;-90
2021/07/07 10:07:35;;;;;;;4.03;2.53;;;;;;;34.36;24.33;98635.22;5075347;28;20044;-90
2021/07/07 10:10:02;;;;;;;5.93;3.10;;;;;;;34.43;24.83;98638.88;5074834;28;20067;-90
2021/07/07 10:12:30;;;;;;;6.55;3.42;;;;;;;34.15;23.92;98634.13;5074528;28;20047;-90
2021/07/07 10:14:58;;;;;;;5.80;3.10;;;;;;;33.88;25.01;98616.44;5073258;28;20052;-91
2021/07/07 10:17:24;;;;;;;5.32;3.15;;;;;;;33.74;25.25;98625.59;5074098;28;20040;-91
2021/07/07 10:19:50;;;;;;;7.15;3.78;;;;;;;33.47;26.38;98605.09;5073674;28;20393;-91
2021/07/07 10:22:16;;;;;;;6.57;3.35;;;;;;;33.52;26.33;98616.38;5073720;28;20036;-93
2021/07/07 10:24:42;;;;;;;5.97;3.15;;;;;;;33.85;25.76;98625.06;5073870;28;20542;-92
2021/07/07 10:27:09;;;;;;;5.72;3.38;;;;;;;34.02;24.93;98611.91;5073732;28;20045;-92
2021/07/07 10:29:36;;;;;;;5.60;3.50;;;;;;;34.20;25.34;98607.84;5073830;28;20045;-92
2021/07/07 10:32:05;;;;;;;6.53;3.78;;;;;;;33.74;26.08;98611.78;5071977;28;20052;-92
2021/07/07 10:34:31;;;;;;;5.47;3.30;;;;;;;33.97;25.88;98606.13;5070631;28;20041;-89
2021/07/07 10:36:59;;;;;;;5.50;4.25;;;;;;;34.31;26.05;98608.19;5073990;28;20044;-92
2021/07/07 10:39:27;;;;;;;8.07;3.97;;;;;;;34.59;25.52;98618.41;5073442;28;20577;-92
2021/07/07 10:41:56;;;;;;;10.27;3.40;;;;;;;33.64;26.02;98590.06;5073865;28;20071;-91
2021/07/07 10:44:45;;;;;;;6.70;3.65;;;;;;;34.23;25.70;98607.47;5073447;28;20036;-91
2021/07/07 10:47:13;;;;;;;5.40;3.60;;;;;;;34.32;25.40;98598.84;5068878;28;20041;-92
2021/07/07 10:49:40;;;;;;;7.53;3.72;;;;;;;34.49;25.69;98606.88;5073818;28;20036;-90
2021/07/07 10:52:08;;;;;;;5.78;3.60;;;;;;;34.46;25.79;98610.88;5074039;28;20048;-91
2021/07/07 10:54:36;;;;;;;5.47;3.33;;;;;;;34.41;25.79;98587.69;5073760;28;20444;-91
2021/07/07 10:57:04;;;;;;;4.40;3.47;;;;;;;34.60;26.01;98605.47;5073037;28;20044;-91
2021/07/07 10:59:32;;;;;;;8.65;4.00;;;;;;;34.53;25.74;98597.97;5073118;28;20051;-89
2021/07/07 11:02:01;;;;;;;5.72;3.50;;;;;;;34.60;25.33;98587.00;5071296;28;20072;-89
2021/07/07 11:04:38;;;;;;;6.40;3.78;;;;;;;34.83;25.69;98605.22;5073801;28;20048;-90
2021/07/07 11:07:34;;;;;;;7.18;4.03;;;;;;;34.98;25.49;98605.97;5073981;28;20048;-92
2021/07/07 11:10:02;;;;;;;5.60;3.80;;;;;;;35.10;25.17;98612.66;5069827;28;20036;-92
2021/07/07 11:13:13;;;;;;;5.70;3.80;;;;;;;35.15;25.24;98599.09;5073743;28;20102;-91
2021/07/07 11:15:40;;;;;;;6.75;3.90;;;;;;;34.95;24.63;98596.19;5025551;28;20131;-92
2021/07/07 11:18:17;;;;;;;4.38;3.63;;;;;;;34.86;24.46;98594.66;5073026;28;20076;-90
2021/07/07 11:20:53;;;;;;;4.78;3.65;;;;;;;34.42;24.26;98592.13;5072844;28;20028;-91
2021/07/07 11:23:20;;;;;;;8.30;3.78;;;;;;;34.29;25.07;98590.13;5073010;28;20048;-92
2021/07/07 11:25:46;;;;;;;6.60;3.50;;;;;;;34.68;25.36;98595.16;5073716;28;20040;-92
2021/07/07 11:28:15;;;;;;;9.18;4.00;;;;;;;34.45;25.53;98589.84;5073457;28;20948;-93
2021/07/07 11:30:41;;;;;;;8.15;3.70;;;;;;;34.20;25.97;98594.06;5071079;28;20044;-90
2021/07/07 11:33:08;;;;;;;6.28;3.78;;;;;;;34.01;24.77;98604.69;5073033;28;20045;-95
2021/07/07 11:35:36;;;;;;;5.15;3.17;;;;;;;34.45;24.61;98584.31;5073031;28;20033;-91
2021/07/07 11:38:05;;;;;;;5.38;3.75;;;;;;;34.84;25.86;98588.47;5072857;28;20045;-94
2021/07/07 11:40:33;;;;;;;6.97;3.75;;;;;;;34.74;24.75;98601.78;5072798;28;20106;-91
2021/07/07 11:43:01;;;;;;;5.20;3.20;;;;;;;34.92;24.24;98596.59;5072850;28;20048;-92
2021/07/07 11:45:31;;;;;;;4.90;3.28;;;;;;;35.24;23.52;98598.94;5070818;28;20033;-91
2021/07/07 11:50:57;;;;;;;5.40;3.50;;;;;;;35.36;23.64;98592.63;5088856;27;20367;-89
2021/07/07 11:53:31;;;;;;;4.60;3.22;;;;;;;35.55;23.83;98602.06;5072649;28;20080;-90
2021/07/07 11:55:59;;;;;;;6.65;3.15;;;;;;;35.77;22.40;98604.75;5068346;28;20041;-91
2021/07/07 11:58:26;;;;;;;;;;;;;;;35.74;23.05;98594.06;5071756;28;20056;-91
2021/07/07 12:00:54;;;;;;;7.43;3.28;;;;;;;35.52;23.21;98591.41;5067626;28;19921;-92
2021/07/07 12:03:21;;;;;;;5.18;3.08;;;;;;;35.82;21.68;98596.66;5070948;28;20044;-90
2021/07/07 12:05:49;;;;;;;6.30;3.40;;;;;;;35.54;22.50;98583.75;5069827;28;20076;-90